< Typhoon 200321 2004 Season Typhoon 200402 >
Typhoon 200401 (SUDAL)
General InformationTrack Information on Google MapsDetailed Wind InformationAccess Analytics MapList of All Images || NewsDisaster Info.WeblogResourceGoogle EarthGE AnimationAtom FeedGeoJSON
Detalied Best Track (Time Zone = UTC)
Year Month Day Hour Lat. Long. Pressure (hPa) Wind (kt) Class Image Chart
2004 4 2 18 6.5 152.8 1004 0 2 Image Chart
2004 4 3 00 6.4 152.3 1004 0 2 Image Chart
2004 4 3 06 6.5 151.9 1004 0 2 Image Chart
2004 4 3 12 6.6 151.4 1004 0 2 Image Chart
2004 4 3 18 6.5 151.0 1002 0 2 Image Chart
2004 4 4 00 6.5 150.6 1002 0 2 Image Chart
2004 4 4 06 6.7 150.1 1000 0 2 Image Chart
2004 4 4 12 7.1 149.6 1000 0 2 Image Chart
2004 4 4 18 7.8 149.3 1000 0 2 Image Chart
2004 4 5 00 8.4 149.1 998 35 3 Image Chart
2004 4 5 06 8.8 148.8 990 40 3 Image Chart
2004 4 5 12 9.2 148.6 990 40 3 Image Chart
2004 4 5 18 9.5 147.7 985 45 3 Image Chart
2004 4 6 00 9.3 147.0 980 50 4 Image Chart
2004 4 6 06 9.2 146.2 980 50 4 Image Chart
2004 4 6 12 9.5 145.4 980 55 4 Image Chart
2004 4 6 18 9.9 144.9 975 60 4 Image Chart
2004 4 7 00 10.0 144.0 975 60 4 Image Chart
2004 4 7 06 9.9 143.0 975 60 4 Image Chart
2004 4 7 12 9.6 142.2 975 60 4 Image Chart
2004 4 7 18 9.3 141.5 970 65 5 Image Chart
2004 4 8 00 9.0 140.6 960 70 5 Image Chart
2004 4 8 06 8.8 139.9 955 75 5 Image Chart
2004 4 8 12 8.8 139.1 950 80 5 Image Chart
2004 4 8 18 9.0 138.5 950 80 5 Image Chart
2004 4 9 00 9.2 138.0 950 80 5 Image Chart
2004 4 9 06 9.5 137.2 950 80 5 Image Chart
2004 4 9 12 9.9 136.6 950 80 5 Image Chart
2004 4 9 18 10.3 135.8 945 85 5 Image Chart
2004 4 10 00 10.8 135.2 940 90 5 Image Chart
2004 4 10 06 11.4 134.4 940 90 5 Image Chart
2004 4 10 12 11.9 133.5 940 90 5 Image Chart
2004 4 10 18 12.4 132.8 945 85 5 Image Chart
2004 4 11 00 13.1 132.1 945 85 5 Image Chart
2004 4 11 06 13.6 131.7 945 85 5 Image Chart
2004 4 11 12 14.2 131.4 945 85 5 Image Chart
2004 4 11 18 14.8 131.2 945 85 5 Image Chart
2004 4 12 00 15.4 131.0 945 85 5 Image Chart
2004 4 12 06 15.7 131.0 945 85 5 Image Chart
2004 4 12 12 16.1 131.1 945 85 5 Image Chart
2004 4 12 18 16.6 131.3 945 85 5 Image Chart
2004 4 13 00 17.2 131.6 945 85 5 Image Chart
2004 4 13 06 17.8 132.0 945 85 5 Image Chart
2004 4 13 12 18.7 132.6 945 85 5 Image Chart
2004 4 13 18 19.5 133.2 945 85 5 Image Chart
2004 4 14 00 20.4 134.0 950 80 5 Image Chart
2004 4 14 06 21.4 135.1 950 80 5 Image Chart
2004 4 14 12 22.4 136.5 955 80 5 Image Chart
2004 4 14 18 23.1 138.0 960 75 5 Image Chart
2004 4 15 00 23.7 139.1 965 70 5 Image Chart
2004 4 15 03 24.1 140.0 965 65 5 Image Chart
2004 4 15 06 24.5 141.0 970 60 4 Image Chart
2004 4 15 09 24.8 142.0 970 60 4 Image Chart
2004 4 15 12 25.3 143.1 975 60 4 Image Chart
2004 4 15 15 25.8 144.4 975 60 4 Image Chart
2004 4 15 18 26.5 146.3 980 55 4 Image Chart
2004 4 16 00 27.5 148.1 985 50 4 Image Chart
2004 4 16 06 28.5 150.8 990 45 3 Image Chart
2004 4 16 12 29.0 153.0 996 0 6 Image Chart
2004 4 16 18 30.2 157.8 992 0 6 Image Chart
2004 4 17 00 32.7 162.0 994 0 6 Image Chart
2004 4 17 06 35.1 168.0 994 0 6 Image Chart
2004 4 17 12 37.5 173.7 996 0 6 Image Chart
2004 4 17 18 39.3 180.0 1000 0 6 Image Chart
2004 4 18 00 41.5 187.4 1008 0 6 Image Chart
Japan Meteorological Agency Best Track Data | Correction Date : 2006-01-18
< Typhoon 200321 2004 Season Typhoon 200402 >

Help